sensor_id;sensor_type;location;lat;lon;timestamp;temperature;humidity
21123;DHT22;10719;48.130;11.630;2023-07-02T00:01:45;17.00;99.90
21123;DHT22;10719;48.130;11.630;2023-07-02T00:04:11;16.90;99.90
21123;DHT22;10719;48.130;11.630;2023-07-02T00:06:44;17.00;99.90
21123;DHT22;10719;48.130;11.630;2023-07-02T00:09:10;16.90;99.90
21123;DHT22;10719;48.130;11.630;2023-07-02T00:11:41;17.00;99.90
21123;DHT22;10719;48.130;11.630;2023-07-02T00:14:08;16.90;99.90
21123;DHT22;10719;48.130;11.630;2023-07-02T00:16:38;16.90;99.90
21123;DHT22;10719;48.130;11.630;2023-07-02T00:19:04;16.90;99.90
21123;DHT22;10719;48.130;11.630;2023-07-02T00:21:30;17.00;99.90
21123;DHT22;10719;48.130;11.630;2023-07-02T00:23:59;17.00;99.90
21123;DHT22;10719;48.130;11.630;2023-07-02T00:26:26;17.00;99.90
21123;DHT22;10719;48.130;11.630;2023-07-02T00:28:54;17.00;99.90
21123;DHT22;10719;48.130;11.630;2023-07-02T00:31:20;17.00;99.90
21123;DHT22;10719;48.130;11.630;2023-07-02T00:33:45;17.00;99.90
21123;DHT22;10719;48.130;11.630;2023-07-02T00:36:12;17.10;99.90
21123;DHT22;10719;48.130;11.630;2023-07-02T00:38:44;17.10;99.90
21123;DHT22;10719;48.130;11.630;2023-07-02T00:41:10;17.10;99.90
21123;DHT22;10719;48.130;11.630;2023-07-02T00:43:36;17.10;99.90
21123;DHT22;10719;48.130;11.630;2023-07-02T00:46:05;17.10;99.90
21123;DHT22;10719;48.130;11.630;2023-07-02T00:48:31;17.10;99.90
21123;DHT22;10719;48.130;11.630;2023-07-02T00:50:57;17.00;99.90
21123;DHT22;10719;48.130;11.630;2023-07-02T00:53:23;16.90;99.90
21123;DHT22;10719;48.130;11.630;2023-07-02T00:55:48;17.00;99.90
21123;DHT22;10719;48.130;11.630;2023-07-02T00:58:14;17.00;99.90
21123;DHT22;10719;48.130;11.630;2023-07-02T01:00:41;17.00;99.90
21123;DHT22;10719;48.130;11.630;2023-07-02T01:03:07;17.00;99.90
21123;DHT22;10719;48.130;11.630;2023-07-02T01:05:33;17.00;99.90
21123;DHT22;10719;48.130;11.630;2023-07-02T01:08:05;17.00;99.90
21123;DHT22;10719;48.130;11.630;2023-07-02T01:10:33;16.90;99.90
21123;DHT22;10719;48.130;11.630;2023-07-02T01:13:04;16.90;99.90
21123;DHT22;10719;48.130;11.630;2023-07-02T01:15:31;16.80;99.90
21123;DHT22;10719;48.130;11.630;2023-07-02T01:17:57;16.90;99.90
21123;DHT22;10719;48.130;11.630;2023-07-02T01:20:24;16.90;99.90
21123;DHT22;10719;48.130;11.630;2023-07-02T01:22:50;16.80;99.90
21123;DHT22;10719;48.130;11.630;2023-07-02T01:25:19;16.80;99.90
21123;DHT22;10719;48.130;11.630;2023-07-02T01:27:50;16.80;99.90
21123;DHT22;10719;48.130;11.630;2023-07-02T01:30:18;16.70;99.90
21123;DHT22;10719;48.130;11.630;2023-07-02T01:32:44;16.70;99.90
21123;DHT22;10719;48.130;11.630;2023-07-02T01:35:10;16.70;99.90
21123;DHT22;10719;48.130;11.630;2023-07-02T01:37:35;16.70;99.90
21123;DHT22;10719;48.130;11.630;2023-07-02T01:40:05;16.70;99.90
21123;DHT22;10719;48.130;11.630;2023-07-02T01:42:32;16.70;99.90
21123;DHT22;10719;48.130;11.630;2023-07-02T01:44:57;16.70;99.90
21123;DHT22;10719;48.130;11.630;2023-07-02T01:47:23;16.70;99.90
21123;DHT22;10719;48.130;11.630;2023-07-02T01:49:50;16.80;99.90
21123;DHT22;10719;48.130;11.630;2023-07-02T01:52:16;16.80;99.90
21123;DHT22;10719;48.130;11.630;2023-07-02T01:54:42;16.80;99.90
21123;DHT22;10719;48.130;11.630;2023-07-02T01:57:08;16.80;99.90
21123;DHT22;10719;48.130;11.630;2023-07-02T01:59:34;16.80;99.90
21123;DHT22;10719;48.130;11.630;2023-07-02T02:02:00;16.80;99.90
21123;DHT22;10719;48.130;11.630;2023-07-02T02:04:26;16.80;99.90
21123;DHT22;10719;48.130;11.630;2023-07-02T02:06:51;16.80;99.90
21123;DHT22;10719;48.130;11.630;2023-07-02T02:09:18;16.70;99.90
21123;DHT22;10719;48.130;11.630;2023-07-02T02:11:47;16.70;99.90
21123;DHT22;10719;48.130;11.630;2023-07-02T02:14:13;16.70;99.90
21123;DHT22;10719;48.130;11.630;2023-07-02T02:16:38;16.60;99.90
21123;DHT22;10719;48.130;11.630;2023-07-02T02:19:05;16.60;99.90
21123;DHT22;10719;48.130;11.630;2023-07-02T02:21:31;16.50;99.90
21123;DHT22;10719;48.130;11.630;2023-07-02T02:23:56;16.50;99.90
21123;DHT22;10719;48.130;11.630;2023-07-02T02:26:23;16.50;99.90
21123;DHT22;10719;48.130;11.630;2023-07-02T02:28:50;16.40;99.90
21123;DHT22;10719;48.130;11.630;2023-07-02T02:31:16;16.30;99.90
21123;DHT22;10719;48.130;11.630;2023-07-02T02:33:42;16.40;99.90
21123;DHT22;10719;48.130;11.630;2023-07-02T02:36:08;16.40;99.90
21123;DHT22;10719;48.130;11.630;2023-07-02T02:38:34;16.50;99.90
21123;DHT22;10719;48.130;11.630;2023-07-02T02:40:59;16.50;99.90
21123;DHT22;10719;48.130;11.630;2023-07-02T02:43:26;16.50;99.90
21123;DHT22;10719;48.130;11.630;2023-07-02T02:45:51;16.60;99.90
21123;DHT22;10719;48.130;11.630;2023-07-02T02:48:17;16.50;99.90
21123;DHT22;10719;48.130;11.630;2023-07-02T02:50:42;16.50;99.90
21123;DHT22;10719;48.130;11.630;2023-07-02T02:53:09;16.60;99.90
21123;DHT22;10719;48.130;11.630;2023-07-02T02:55:38;16.60;99.90
21123;DHT22;10719;48.130;11.630;2023-07-02T02:58:04;16.60;99.90
21123;DHT22;10719;48.130;11.630;2023-07-02T03:00:29;16.70;99.90
21123;DHT22;10719;48.130;11.630;2023-07-02T03:02:55;16.70;99.90
21123;DHT22;10719;48.130;11.630;2023-07-02T03:05:21;16.70;99.90
21123;DHT22;10719;48.130;11.630;2023-07-02T03:07:47;16.70;99.90
21123;DHT22;10719;48.130;11.630;2023-07-02T03:10:13;16.80;99.90
21123;DHT22;10719;48.130;11.630;2023-07-02T03:12:39;16.80;99.90
21123;DHT22;10719;48.130;11.630;2023-07-02T03:15:05;16.80;99.90
21123;DHT22;10719;48.130;11.630;2023-07-02T03:17:31;16.80;99.90
21123;DHT22;10719;48.130;11.630;2023-07-02T03:19:56;16.80;99.90
21123;DHT22;10719;48.130;11.630;2023-07-02T03:22:22;16.80;99.90
21123;DHT22;10719;48.130;11.630;2023-07-02T03:24:48;16.70;99.90
21123;DHT22;10719;48.130;11.630;2023-07-02T03:27:13;16.70;99.90
21123;DHT22;10719;48.130;11.630;2023-07-02T03:29:39;16.70;99.90
21123;DHT22;10719;48.130;11.630;2023-07-02T03:32:05;16.60;99.90
21123;DHT22;10719;48.130;11.630;2023-07-02T03:34:30;16.40;99.90
21123;DHT22;10719;48.130;11.630;2023-07-02T03:36:56;15.90;99.90
21123;DHT22;10719;48.130;11.630;2023-07-02T03:39:22;15.40;99.90
21123;DHT22;10719;48.130;11.630;2023-07-02T03:41:47;15.20;99.90
21123;DHT22;10719;48.130;11.630;2023-07-02T03:44:13;14.90;99.90
21123;DHT22;10719;48.130;11.630;2023-07-02T03:46:39;14.70;99.90
21123;DHT22;10719;48.130;11.630;2023-07-02T03:49:04;14.60;99.90
21123;DHT22;10719;48.130;11.630;2023-07-02T03:51:31;14.50;99.90
21123;DHT22;10719;48.130;11.630;2023-07-02T03:53:58;14.50;99.90
21123;DHT22;10719;48.130;11.630;2023-07-02T03:56:23;14.50;99.90
21123;DHT22;10719;48.130;11.630;2023-07-02T03:58:49;14.40;99.90
21123;DHT22;10719;48.130;11.630;2023-07-02T04:01:15;14.40;99.90
21123;DHT22;10719;48.130;11.630;2023-07-02T04:03:47;14.30;99.90
21123;DHT22;10719;48.130;11.630;2023-07-02T04:06:12;14.30;99.90
21123;DHT22;10719;48.130;11.630;2023-07-02T04:08:38;14.30;99.90
21123;DHT22;10719;48.130;11.630;2023-07-02T04:11:04;14.30;99.90
21123;DHT22;10719;48.130;11.630;2023-07-02T04:13:29;14.20;99.90
21123;DHT22;10719;48.130;11.630;2023-07-02T04:15:55;14.20;99.90
21123;DHT22;10719;48.130;11.630;2023-07-02T04:18:21;14.10;99.90
21123;DHT22;10719;48.130;11.630;2023-07-02T04:20:46;14.20;99.90
21123;DHT22;10719;48.130;11.630;2023-07-02T04:23:12;14.10;99.90
21123;DHT22;10719;48.130;11.630;2023-07-02T04:25:37;14.10;99.90
21123;DHT22;10719;48.130;11.630;2023-07-02T04:28:03;14.10;99.90
21123;DHT22;10719;48.130;11.630;2023-07-02T04:30:29;14.10;99.90
21123;DHT22;10719;48.130;11.630;2023-07-02T04:32:54;14.10;99.90
21123;DHT22;10719;48.130;11.630;2023-07-02T04:35:20;14.20;99.90
21123;DHT22;10719;48.130;11.630;2023-07-02T04:37:45;14.20;99.90
21123;DHT22;10719;48.130;11.630;2023-07-02T04:40:11;14.10;99.90
21123;DHT22;10719;48.130;11.630;2023-07-02T04:42:37;14.10;99.90
21123;DHT22;10719;48.130;11.630;2023-07-02T04:45:05;14.10;99.90
21123;DHT22;10719;48.130;11.630;2023-07-02T04:47:30;14.00;99.90
21123;DHT22;10719;48.130;11.630;2023-07-02T04:49:57;14.10;99.90
21123;DHT22;10719;48.130;11.630;2023-07-02T04:52:23;14.10;99.90
21123;DHT22;10719;48.130;11.630;2023-07-02T04:54:48;14.00;99.90
21123;DHT22;10719;48.130;11.630;2023-07-02T04:57:14;14.00;99.90
21123;DHT22;10719;48.130;11.630;2023-07-02T04:59:41;14.00;99.90
21123;DHT22;10719;48.130;11.630;2023-07-02T05:02:07;14.00;99.90
21123;DHT22;10719;48.130;11.630;2023-07-02T05:04:33;14.10;99.90
21123;DHT22;10719;48.130;11.630;2023-07-02T05:07:00;14.10;99.90
21123;DHT22;10719;48.130;11.630;2023-07-02T05:09:25;14.20;99.90
21123;DHT22;10719;48.130;11.630;2023-07-02T05:11:51;14.30;99.90
21123;DHT22;10719;48.130;11.630;2023-07-02T05:14:16;14.20;99.90
21123;DHT22;10719;48.130;11.630;2023-07-02T05:16:42;14.20;99.90
21123;DHT22;10719;48.130;11.630;2023-07-02T05:19:08;14.20;99.90
21123;DHT22;10719;48.130;11.630;2023-07-02T05:21:33;14.20;99.90
21123;DHT22;10719;48.130;11.630;2023-07-02T05:23:59;14.20;99.90
21123;DHT22;10719;48.130;11.630;2023-07-02T05:26:24;14.10;99.90
21123;DHT22;10719;48.130;11.630;2023-07-02T05:28:51;14.00;99.90
21123;DHT22;10719;48.130;11.630;2023-07-02T05:31:17;14.00;99.90
21123;DHT22;10719;48.130;11.630;2023-07-02T05:33:42;14.10;99.90
21123;DHT22;10719;48.130;11.630;2023-07-02T05:36:08;14.20;99.90
21123;DHT22;10719;48.130;11.630;2023-07-02T05:38:33;14.20;99.90
21123;DHT22;10719;48.130;11.630;2023-07-02T05:40:59;14.30;99.90
21123;DHT22;10719;48.130;11.630;2023-07-02T05:43:24;14.30;99.90
21123;DHT22;10719;48.130;11.630;2023-07-02T05:45:51;14.40;99.90
21123;DHT22;10719;48.130;11.630;2023-07-02T05:48:17;14.40;99.90
21123;DHT22;10719;48.130;11.630;2023-07-02T05:50:43;14.50;99.90
21123;DHT22;10719;48.130;11.630;2023-07-02T05:53:09;14.50;99.90
21123;DHT22;10719;48.130;11.630;2023-07-02T05:55:36;14.60;99.90
21123;DHT22;10719;48.130;11.630;2023-07-02T05:58:02;14.70;99.90
21123;DHT22;10719;48.130;11.630;2023-07-02T06:00:29;14.80;99.90
21123;DHT22;10719;48.130;11.630;2023-07-02T06:02:54;15.00;99.90
21123;DHT22;10719;48.130;11.630;2023-07-02T06:05:20;14.90;99.90
21123;DHT22;10719;48.130;11.630;2023-07-02T06:07:46;15.00;99.90
21123;DHT22;10719;48.130;11.630;2023-07-02T06:10:11;15.10;99.90
21123;DHT22;10719;48.130;11.630;2023-07-02T06:12:37;15.20;99.90
21123;DHT22;10719;48.130;11.630;2023-07-02T06:15:04;15.00;99.90
21123;DHT22;10719;48.130;11.630;2023-07-02T06:17:29;15.00;99.90
21123;DHT22;10719;48.130;11.630;2023-07-02T06:19:56;15.00;99.90
21123;DHT22;10719;48.130;11.630;2023-07-02T06:22:22;15.00;99.90
21123;DHT22;10719;48.130;11.630;2023-07-02T06:24:48;15.00;99.90
21123;DHT22;10719;48.130;11.630;2023-07-02T06:27:14;15.00;99.90
21123;DHT22;10719;48.130;11.630;2023-07-02T06:29:39;15.00;99.90
21123;DHT22;10719;48.130;11.630;2023-07-02T06:32:05;15.10;99.90
21123;DHT22;10719;48.130;11.630;2023-07-02T06:34:31;15.10;99.90
21123;DHT22;10719;48.130;11.630;2023-07-02T06:36:57;15.10;99.90
21123;DHT22;10719;48.130;11.630;2023-07-02T06:39:22;15.10;99.90
21123;DHT22;10719;48.130;11.630;2023-07-02T06:41:48;15.10;99.90
21123;DHT22;10719;48.130;11.630;2023-07-02T06:44:14;15.20;99.90
21123;DHT22;10719;48.130;11.630;2023-07-02T06:46:39;15.20;99.90
21123;DHT22;10719;48.130;11.630;2023-07-02T06:49:05;15.20;99.90
21123;DHT22;10719;48.130;11.630;2023-07-02T06:51:31;15.10;99.90
21123;DHT22;10719;48.130;11.630;2023-07-02T06:53:56;15.10;99.90
21123;DHT22;10719;48.130;11.630;2023-07-02T06:56:22;15.20;99.90
21123;DHT22;10719;48.130;11.630;2023-07-02T06:58:47;15.20;99.90
21123;DHT22;10719;48.130;11.630;2023-07-02T07:01:13;15.10;99.90
21123;DHT22;10719;48.130;11.630;2023-07-02T07:03:38;15.10;99.90
21123;DHT22;10719;48.130;11.630;2023-07-02T07:06:04;15.20;99.90
21123;DHT22;10719;48.130;11.630;2023-07-02T07:08:30;15.20;99.90
21123;DHT22;10719;48.130;11.630;2023-07-02T07:10:55;15.20;99.90
21123;DHT22;10719;48.130;11.630;2023-07-02T07:13:21;15.20;99.90
21123;DHT22;10719;48.130;11.630;2023-07-02T07:15:46;15.20;99.90
21123;DHT22;10719;48.130;11.630;2023-07-02T07:18:12;15.10;99.90
21123;DHT22;10719;48.130;11.630;2023-07-02T07:20:39;15.10;99.90
21123;DHT22;10719;48.130;11.630;2023-07-02T07:23:06;15.10;99.90
21123;DHT22;10719;48.130;11.630;2023-07-02T07:25:31;15.00;99.90
21123;DHT22;10719;48.130;11.630;2023-07-02T07:27:59;14.80;99.90
21123;DHT22;10719;48.130;11.630;2023-07-02T07:30:25;14.70;99.90
21123;DHT22;10719;48.130;11.630;2023-07-02T07:32:53;14.60;99.90
21123;DHT22;10719;48.130;11.630;2023-07-02T07:35:20;14.60;99.90
21123;DHT22;10719;48.130;11.630;2023-07-02T07:37:47;14.50;99.90
21123;DHT22;10719;48.130;11.630;2023-07-02T07:40:13;14.50;99.90
21123;DHT22;10719;48.130;11.630;2023-07-02T07:42:39;14.60;99.90
21123;DHT22;10719;48.130;11.630;2023-07-02T07:45:05;14.50;99.90
21123;DHT22;10719;48.130;11.630;2023-07-02T07:47:31;14.60;99.90
21123;DHT22;10719;48.130;11.630;2023-07-02T07:49:56;14.60;99.90
21123;DHT22;10719;48.130;11.630;2023-07-02T07:52:22;14.70;99.90
21123;DHT22;10719;48.130;11.630;2023-07-02T07:54:47;14.80;99.90
21123;DHT22;10719;48.130;11.630;2023-07-02T07:57:14;14.70;99.90
21123;DHT22;10719;48.130;11.630;2023-07-02T07:59:39;14.80;99.90
21123;DHT22;10719;48.130;11.630;2023-07-02T08:02:05;14.90;99.90
21123;DHT22;10719;48.130;11.630;2023-07-02T08:04:31;14.70;99.90
21123;DHT22;10719;48.130;11.630;2023-07-02T08:06:57;14.80;99.90
21123;DHT22;10719;48.130;11.630;2023-07-02T08:09:23;14.90;99.90
21123;DHT22;10719;48.130;11.630;2023-07-02T08:11:49;15.10;99.90
21123;DHT22;10719;48.130;11.630;2023-07-02T08:14:16;15.30;99.90
21123;DHT22;10719;48.130;11.630;2023-07-02T08:16:42;15.30;99.90
21123;DHT22;10719;48.130;11.630;2023-07-02T08:19:09;15.40;99.90
21123;DHT22;10719;48.130;11.630;2023-07-02T08:21:35;15.60;99.90
21123;DHT22;10719;48.130;11.630;2023-07-02T08:24:01;15.80;99.90
21123;DHT22;10719;48.130;11.630;2023-07-02T08:26:26;15.90;99.90
21123;DHT22;10719;48.130;11.630;2023-07-02T08:28:52;16.10;99.90
21123;DHT22;10719;48.130;11.630;2023-07-02T08:31:17;16.20;99.90
21123;DHT22;10719;48.130;11.630;2023-07-02T08:33:43;16.10;99.90
21123;DHT22;10719;48.130;11.630;2023-07-02T08:36:09;16.10;99.90
21123;DHT22;10719;48.130;11.630;2023-07-02T08:38:34;16.00;99.90
21123;DHT22;10719;48.130;11.630;2023-07-02T08:41:00;16.00;99.90
21123;DHT22;10719;48.130;11.630;2023-07-02T08:43:26;15.90;99.90
21123;DHT22;10719;48.130;11.630;2023-07-02T08:45:53;15.90;99.90
21123;DHT22;10719;48.130;11.630;2023-07-02T08:48:18;15.90;99.90
21123;DHT22;10719;48.130;11.630;2023-07-02T08:50:48;15.90;99.90
21123;DHT22;10719;48.130;11.630;2023-07-02T08:53:14;15.80;99.90
21123;DHT22;10719;48.130;11.630;2023-07-02T08:55:40;15.70;99.90
21123;DHT22;10719;48.130;11.630;2023-07-02T08:58:05;15.70;99.90
21123;DHT22;10719;48.130;11.630;2023-07-02T09:00:31;15.70;99.90
21123;DHT22;10719;48.130;11.630;2023-07-02T09:03:22;15.60;99.90
21123;DHT22;10719;48.130;11.630;2023-07-02T09:05:51;15.70;99.90
21123;DHT22;10719;48.130;11.630;2023-07-02T09:08:27;15.70;99.90
21123;DHT22;10719;48.130;11.630;2023-07-02T09:10:54;15.60;99.90
21123;DHT22;10719;48.130;11.630;2023-07-02T09:13:20;15.50;99.90
21123;DHT22;10719;48.130;11.630;2023-07-02T09:15:45;15.50;99.90
21123;DHT22;10719;48.130;11.630;2023-07-02T09:18:21;15.50;99.90
21123;DHT22;10719;48.130;11.630;2023-07-02T09:20:51;15.50;99.90
21123;DHT22;10719;48.130;11.630;2023-07-02T09:23:17;15.60;99.90
21123;DHT22;10719;48.130;11.630;2023-07-02T09:25:42;15.70;99.90
21123;DHT22;10719;48.130;11.630;2023-07-02T09:28:19;15.70;99.90
21123;DHT22;10719;48.130;11.630;2023-07-02T09:30:57;15.70;99.90
21123;DHT22;10719;48.130;11.630;2023-07-02T09:33:24;15.60;99.90
21123;DHT22;10719;48.130;11.630;2023-07-02T09:35:50;15.70;99.90
21123;DHT22;10719;48.130;11.630;2023-07-02T09:38:18;15.80;99.90
21123;DHT22;10719;48.130;11.630;2023-07-02T09:40:51;15.80;99.90
21123;DHT22;10719;48.130;11.630;2023-07-02T09:43:18;15.90;99.90
21123;DHT22;10719;48.130;11.630;2023-07-02T09:45:45;15.90;99.90
21123;DHT22;10719;48.130;11.630;2023-07-02T09:48:13;15.90;99.90
21123;DHT22;10719;48.130;11.630;2023-07-02T09:50:45;15.90;99.90
21123;DHT22;10719;48.130;11.630;2023-07-02T09:53:11;16.00;99.90
21123;DHT22;10719;48.130;11.630;2023-07-02T09:55:38;16.10;99.90
21123;DHT22;10719;48.130;11.630;2023-07-02T09:58:05;16.10;99.90
21123;DHT22;10719;48.130;11.630;2023-07-02T10:00:31;16.20;99.90
21123;DHT22;10719;48.130;11.630;2023-07-02T10:02:57;16.20;99.90
21123;DHT22;10719;48.130;11.630;2023-07-02T10:05:30;16.20;99.90
21123;DHT22;10719;48.130;11.630;2023-07-02T10:07:57;16.10;99.90
21123;DHT22;10719;48.130;11.630;2023-07-02T10:10:30;16.10;99.90
21123;DHT22;10719;48.130;11.630;2023-07-02T10:12:56;16.10;99.90
21123;DHT22;10719;48.130;11.630;2023-07-02T10:15:29;16.20;99.90
21123;DHT22;10719;48.130;11.630;2023-07-02T10:17:59;16.30;99.90
21123;DHT22;10719;48.130;11.630;2023-07-02T10:20:36;16.30;99.90
21123;DHT22;10719;48.130;11.630;2023-07-02T10:23:04;16.40;99.90
21123;DHT22;10719;48.130;11.630;2023-07-02T10:25:35;16.60;99.90
21123;DHT22;10719;48.130;11.630;2023-07-02T10:28:14;17.00;99.90
21123;DHT22;10719;48.130;11.630;2023-07-02T10:30:40;17.80;99.90
21123;DHT22;10719;48.130;11.630;2023-07-02T10:33:12;18.50;99.90
21123;DHT22;10719;48.130;11.630;2023-07-02T10:35:39;18.70;99.90
21123;DHT22;10719;48.130;11.630;2023-07-02T10:38:07;19.00;99.90
21123;DHT22;10719;48.130;11.630;2023-07-02T10:40:33;19.10;99.90
21123;DHT22;10719;48.130;11.630;2023-07-02T10:42:59;19.00;99.90
21123;DHT22;10719;48.130;11.630;2023-07-02T10:45:35;19.20;99.90
21123;DHT22;10719;48.130;11.630;2023-07-02T10:48:03;19.30;99.90
21123;DHT22;10719;48.130;11.630;2023-07-02T10:50:30;19.70;99.90
21123;DHT22;10719;48.130;11.630;2023-07-02T10:52:56;19.60;99.90
21123;DHT22;10719;48.130;11.630;2023-07-02T10:55:24;19.70;99.90
21123;DHT22;10719;48.130;11.630;2023-07-02T10:58:01;19.40;99.90
21123;DHT22;10719;48.130;11.630;2023-07-02T11:00:27;19.70;99.90
21123;DHT22;10719;48.130;11.630;2023-07-02T11:02:52;20.00;99.90
21123;DHT22;10719;48.130;11.630;2023-07-02T11:05:18;20.50;99.90
21123;DHT22;10719;48.130;11.630;2023-07-02T11:07:44;20.40;99.90
21123;DHT22;10719;48.130;11.630;2023-07-02T11:10:16;20.90;99.90
21123;DHT22;10719;48.130;11.630;2023-07-02T11:12:42;21.00;99.90
21123;DHT22;10719;48.130;11.630;2023-07-02T11:15:12;21.30;99.90
21123;DHT22;10719;48.130;11.630;2023-07-02T11:17:38;21.40;99.90
21123;DHT22;10719;48.130;11.630;2023-07-02T11:20:07;21.70;99.90
21123;DHT22;10719;48.130;11.630;2023-07-02T11:22:35;21.40;99.90
21123;DHT22;10719;48.130;11.630;2023-07-02T11:25:18;21.50;99.90
21123;DHT22;10719;48.130;11.630;2023-07-02T11:27:45;21.40;99.90
21123;DHT22;10719;48.130;11.630;2023-07-02T11:30:11;21.40;99.90
21123;DHT22;10719;48.130;11.630;2023-07-02T11:32:54;21.60;99.90
21123;DHT22;10719;48.130;11.630;2023-07-02T11:35:21;21.90;99.90
21123;DHT22;10719;48.130;11.630;2023-07-02T11:37:50;21.60;99.90
21123;DHT22;10719;48.130;11.630;2023-07-02T11:40:18;22.00;99.90
21123;DHT22;10719;48.130;11.630;2023-07-02T11:42:44;22.00;99.90
21123;DHT22;10719;48.130;11.630;2023-07-02T11:45:10;22.10;99.90
21123;DHT22;10719;48.130;11.630;2023-07-02T11:47:37;22.40;99.90
21123;DHT22;10719;48.130;11.630;2023-07-02T11:50:03;23.00;99.90
21123;DHT22;10719;48.130;11.630;2023-07-02T11:52:29;23.40;99.90
21123;DHT22;10719;48.130;11.630;2023-07-02T11:54:54;23.40;99.90
21123;DHT22;10719;48.130;11.630;2023-07-02T11:57:20;23.10;99.90
21123;DHT22;10719;48.130;11.630;2023-07-02T11:59:48;23.30;99.90
21123;DHT22;10719;48.130;11.630;2023-07-02T12:02:14;23.60;99.90
21123;DHT22;10719;48.130;11.630;2023-07-02T12:04:40;24.10;99.90
21123;DHT22;10719;48.130;11.630;2023-07-02T12:07:05;24.20;99.90
21123;DHT22;10719;48.130;11.630;2023-07-02T12:09:31;24.50;99.90
21123;DHT22;10719;48.130;11.630;2023-07-02T12:11:56;25.00;99.90
21123;DHT22;10719;48.130;11.630;2023-07-02T12:14:22;25.50;99.90
21123;DHT22;10719;48.130;11.630;2023-07-02T12:16:48;26.20;99.90
21123;DHT22;10719;48.130;11.630;2023-07-02T12:19:13;26.50;99.90
21123;DHT22;10719;48.130;11.630;2023-07-02T12:21:39;26.90;99.90
21123;DHT22;10719;48.130;11.630;2023-07-02T12:24:05;27.10;99.90
21123;DHT22;10719;48.130;11.630;2023-07-02T12:26:35;26.70;99.90
21123;DHT22;10719;48.130;11.630;2023-07-02T12:29:01;26.90;99.90
21123;DHT22;10719;48.130;11.630;2023-07-02T12:31:26;26.40;99.90
21123;DHT22;10719;48.130;11.630;2023-07-02T12:33:52;27.30;99.90
21123;DHT22;10719;48.130;11.630;2023-07-02T12:36:17;27.60;99.90
21123;DHT22;10719;48.130;11.630;2023-07-02T12:38:43;26.40;99.90
21123;DHT22;10719;48.130;11.630;2023-07-02T12:41:08;25.70;99.90
21123;DHT22;10719;48.130;11.630;2023-07-02T12:43:35;24.50;99.90
21123;DHT22;10719;48.130;11.630;2023-07-02T12:46:07;24.20;99.90
21123;DHT22;10719;48.130;11.630;2023-07-02T12:48:37;24.10;99.90
21123;DHT22;10719;48.130;11.630;2023-07-02T12:51:05;24.80;99.90
21123;DHT22;10719;48.130;11.630;2023-07-02T12:53:35;25.40;99.90
21123;DHT22;10719;48.130;11.630;2023-07-02T12:56:02;25.90;99.90
21123;DHT22;10719;48.130;11.630;2023-07-02T12:58:32;26.60;99.90
21123;DHT22;10719;48.130;11.630;2023-07-02T13:01:01;26.70;99.90
21123;DHT22;10719;48.130;11.630;2023-07-02T13:03:30;27.60;99.90
21123;DHT22;10719;48.130;11.630;2023-07-02T13:05:55;28.60;99.90
21123;DHT22;10719;48.130;11.630;2023-07-02T13:08:21;27.70;99.90
21123;DHT22;10719;48.130;11.630;2023-07-02T13:10:47;26.50;99.90
21123;DHT22;10719;48.130;11.630;2023-07-02T13:13:12;26.10;99.90
21123;DHT22;10719;48.130;11.630;2023-07-02T13:15:38;25.50;99.90
21123;DHT22;10719;48.130;11.630;2023-07-02T13:18:03;25.80;99.90
21123;DHT22;10719;48.130;11.630;2023-07-02T13:20:29;27.30;99.90
21123;DHT22;10719;48.130;11.630;2023-07-02T13:22:55;27.90;99.90
21123;DHT22;10719;48.130;11.630;2023-07-02T13:25:21;27.50;99.90
21123;DHT22;10719;48.130;11.630;2023-07-02T13:27:46;27.60;99.90
21123;DHT22;10719;48.130;11.630;2023-07-02T13:30:12;27.10;99.90
21123;DHT22;10719;48.130;11.630;2023-07-02T13:32:37;26.70;99.90
21123;DHT22;10719;48.130;11.630;2023-07-02T13:35:03;27.40;99.90
21123;DHT22;10719;48.130;11.630;2023-07-02T13:37:29;28.30;99.90
21123;DHT22;10719;48.130;11.630;2023-07-02T13:39:55;28.00;99.90
21123;DHT22;10719;48.130;11.630;2023-07-02T13:42:20;27.40;99.90
21123;DHT22;10719;48.130;11.630;2023-07-02T13:44:46;27.90;99.90
21123;DHT22;10719;48.130;11.630;2023-07-02T13:47:11;28.10;99.90
21123;DHT22;10719;48.130;11.630;2023-07-02T13:49:37;28.40;99.90
21123;DHT22;10719;48.130;11.630;2023-07-02T13:52:09;28.70;99.90
21123;DHT22;10719;48.130;11.630;2023-07-02T13:54:35;28.90;99.90
21123;DHT22;10719;48.130;11.630;2023-07-02T13:57:00;29.00;99.90
21123;DHT22;10719;48.130;11.630;2023-07-02T13:59:26;29.30;99.90
21123;DHT22;10719;48.130;11.630;2023-07-02T14:01:52;29.10;99.90
21123;DHT22;10719;48.130;11.630;2023-07-02T14:04:18;28.70;99.90
21123;DHT22;10719;48.130;11.630;2023-07-02T14:06:44;28.60;99.90
21123;DHT22;10719;48.130;11.630;2023-07-02T14:09:10;29.00;99.90
21123;DHT22;10719;48.130;11.630;2023-07-02T14:11:38;29.90;99.90
21123;DHT22;10719;48.130;11.630;2023-07-02T14:14:04;31.20;99.90
21123;DHT22;10719;48.130;11.630;2023-07-02T14:16:31;31.20;99.90
21123;DHT22;10719;48.130;11.630;2023-07-02T14:18:57;30.30;99.90
21123;DHT22;10719;48.130;11.630;2023-07-02T14:21:23;29.40;99.90
21123;DHT22;10719;48.130;11.630;2023-07-02T14:23:48;29.00;99.90
21123;DHT22;10719;48.130;11.630;2023-07-02T14:26:14;29.90;99.90
21123;DHT22;10719;48.130;11.630;2023-07-02T14:28:39;28.70;99.90
21123;DHT22;10719;48.130;11.630;2023-07-02T14:31:06;29.30;99.90
21123;DHT22;10719;48.130;11.630;2023-07-02T14:33:34;29.60;99.90
21123;DHT22;10719;48.130;11.630;2023-07-02T14:36:01;29.30;99.90
21123;DHT22;10719;48.130;11.630;2023-07-02T14:38:27;28.10;99.90
21123;DHT22;10719;48.130;11.630;2023-07-02T14:40:54;27.80;99.90
21123;DHT22;10719;48.130;11.630;2023-07-02T14:43:22;28.20;99.90
21123;DHT22;10719;48.130;11.630;2023-07-02T14:45:51;27.90;99.90
21123;DHT22;10719;48.130;11.630;2023-07-02T14:48:17;27.80;99.90
21123;DHT22;10719;48.130;11.630;2023-07-02T14:50:54;28.50;99.90
21123;DHT22;10719;48.130;11.630;2023-07-02T14:53:21;27.80;99.90
21123;DHT22;10719;48.130;11.630;2023-07-02T14:55:47;28.70;99.90
21123;DHT22;10719;48.130;11.630;2023-07-02T14:58:14;29.60;99.90
21123;DHT22;10719;48.130;11.630;2023-07-02T15:00:53;29.60;99.90
21123;DHT22;10719;48.130;11.630;2023-07-02T15:03:20;28.40;99.90
21123;DHT22;10719;48.130;11.630;2023-07-02T15:05:48;28.00;99.90
21123;DHT22;10719;48.130;11.630;2023-07-02T15:08:14;27.80;99.90
21123;DHT22;10719;48.130;11.630;2023-07-02T15:10:50;26.90;99.90
21123;DHT22;10719;48.130;11.630;2023-07-02T15:13:16;26.70;99.90